Time;durP1;ratioP1;P1;durP2;ratioP2;P2;SDS_P1;SDS_P2;PMS_P1;PMS_P2;Temp;Humidity;BMP_temperature;BMP_pressure;BME280_temperature;BME280_humidity;BME280_pressure;Samples;Min_cycle;Max_cycle;Signal;HPM_P1;HPM_P2
2023/08/22 00:00:49;;;;;;;;;;;;;;;28.65;40.15;100780.88;5081722;28;1076;-29
2023/08/22 00:03:15;;;;;;;;;;;;;;;28.63;40.07;100772.09;5082042;28;1117;-33
2023/08/22 00:05:40;;;;;;;;;;;;;;;28.60;39.76;100776.03;5069494;28;884;-29
2023/08/22 00:08:06;;;;;;;;;;;;;;;28.52;40.22;100775.31;5075725;28;1927;-29
2023/08/22 00:10:32;;;;;;;;;;;;;;;28.46;40.52;100769.63;5082008;28;1047;-28
2023/08/22 00:12:57;;;;;;;;;;;;;;;28.59;40.29;100771.63;5081962;28;1143;-28
2023/08/22 00:15:23;;;;;;;;;;;;;;;28.50;40.28;100772.78;5074252;28;1094;-27
2023/08/22 00:17:48;;;;;;;;;;;;;;;28.32;40.89;100775.91;5063092;28;1051;-30
2023/08/22 00:20:14;;;;;;;;;;;;;;;28.27;40.94;100764.81;5068988;28;1003;-27
2023/08/22 00:22:40;;;;;;;;;;;;;;;28.15;41.33;100764.47;5072801;28;2349;-32
2023/08/22 00:25:05;;;;;;;;;;;;;;;28.26;40.68;100768.56;5065848;28;1032;-26
2023/08/22 00:27:31;;;;;;;;;;;;;;;28.24;40.58;100766.88;5078032;28;1126;-30
2023/08/22 00:29:57;;;;;;;;;;;;;;;28.24;40.92;100774.16;5065459;28;1902;-28
2023/08/22 00:32:22;;;;;;;;;;;;;;;28.10;41.40;100762.34;5040566;28;1196;-31
2023/08/22 00:34:48;;;;;;;;;;;;;;;28.30;40.70;100773.38;5078946;28;1095;-30
2023/08/22 00:37:13;;;;;;;;;;;;;;;28.54;39.99;100765.13;5078359;28;1127;-32
2023/08/22 00:39:40;;;;;;;;;;;;;;;28.32;40.35;100756.97;5078577;28;968;-28
2023/08/22 00:42:05;;;;;;;;;;;;;;;28.22;40.40;100758.13;5065046;28;1099;-27
2023/08/22 00:44:31;;;;;;;;;;;;;;;28.16;40.70;100764.28;5033720;28;1220;-27
2023/08/22 00:46:56;;;;;;;;;;;;;;;28.39;39.55;100754.38;5065006;28;1028;-29
2023/08/22 00:49:22;;;;;;;;;;;;;;;28.30;40.07;100753.59;5077859;28;1905;-32
2023/08/22 00:51:47;;;;;;;;;;;;;;;28.17;40.53;100757.00;5058886;28;2331;-30
2023/08/22 00:54:13;;;;;;;;;;;;;;;28.23;40.45;100757.09;5064730;28;867;-28
2023/08/22 00:56:38;;;;;;;;;;;;;;;28.30;40.28;100756.31;5053554;28;1099;-29
2023/08/22 00:59:04;;;;;;;;;;;;;;;28.26;40.63;100757.75;5040170;28;1151;-29
2023/08/22 01:01:30;;;;;;;;;;;;;;;28.31;40.00;100750.72;5053693;28;1175;-27
2023/08/22 01:03:55;;;;;;;;;;;;;;;28.16;40.79;100761.56;5078032;28;1111;-28
2023/08/22 01:06:29;;;;;;;;;;;;;;;28.13;40.65;100758.44;5046471;28;874;-28
2023/08/22 01:08:57;;;;;;;;;;;;;;;28.10;40.84;100762.34;5060087;28;1965;-27
2023/08/22 01:11:25;;;;;;;;;;;;;;;28.15;40.34;100759.91;5059714;28;1174;-32
2023/08/22 01:13:50;;;;;;;;;;;;;;;28.37;39.79;100749.16;5078325;28;1048;-29
2023/08/22 01:16:16;;;;;;;;;;;;;;;28.02;40.91;100749.75;5075739;28;1068;-27
2023/08/22 01:18:41;;;;;;;;;;;;;;;28.04;40.86;100749.56;5048075;28;879;-29
2023/08/22 01:21:07;;;;;;;;;;;;;;;28.01;40.84;100749.97;5076837;28;1098;-30
2023/08/22 01:23:32;;;;;;;;;;;;;;;28.15;40.87;100756.34;5070341;28;2711;-32
2023/08/22 01:25:58;;;;;;;;;;;;;;;28.25;40.39;100746.06;5077379;28;1158;-29
2023/08/22 01:28:36;;;;;;;;;;;;;;;28.10;40.38;100749.66;5052258;28;1968;-30
2023/08/22 01:31:10;;;;;;;;;;;;;;;28.15;40.21;100751.78;5059318;28;952;-29
2023/08/22 01:33:36;;;;;;;;;;;;;;;28.07;40.47;100750.03;5059390;28;1288;-26
2023/08/22 01:36:02;;;;;;;;;;;;;;;28.08;40.64;100751.69;5059470;28;1223;-27
2023/08/22 01:38:28;;;;;;;;;;;;;;;28.23;39.92;100758.94;5059431;28;1094;-29
2023/08/22 01:40:53;;;;;;;;;;;;;;;28.16;39.98;100761.56;5052694;28;1099;-31
2023/08/22 01:43:19;;;;;;;;;;;;;;;28.08;40.45;100759.81;5048977;28;845;-30
2023/08/22 01:45:45;;;;;;;;;;;;;;;28.42;40.17;100762.09;5059051;28;1123;-30
2023/08/22 01:48:10;;;;;;;;;;;;;;;28.64;38.98;100771.06;5077055;28;1902;-32
2023/08/22 01:50:36;;;;;;;;;;;;;;;28.27;40.15;100764.81;5077011;28;1158;-27
2023/08/22 01:53:01;;;;;;;;;;;;;;;28.22;40.14;100763.53;5065415;28;2545;-29
2023/08/22 01:55:27;;;;;;;;;;;;;;;28.40;39.77;100764.16;5059800;28;1030;-29
2023/08/22 01:57:52;;;;;;;;;;;;;;;28.57;38.94;100765.59;5058701;28;1228;-31
2023/08/22 02:00:18;;;;;;;;;;;;;;;28.20;39.81;100759.31;5053148;28;1129;-27
2023/08/22 02:02:43;;;;;;;;;;;;;;;28.30;39.30;100757.16;5047028;28;1000;-29
2023/08/22 02:05:09;;;;;;;;;;;;;;;28.44;39.35;100758.19;5055030;28;1163;-27
2023/08/22 02:07:35;;;;;;;;;;;;;;;28.26;39.40;100765.84;5056832;28;1165;-28
2023/08/22 02:10:00;;;;;;;;;;;;;;;28.44;39.03;100758.19;5072845;28;1977;-28
2023/08/22 02:12:26;;;;;;;;;;;;;;;28.28;39.47;100752.97;5076900;28;1174;-32
2023/08/22 02:14:53;;;;;;;;;;;;;;;28.25;39.85;100756.88;5058584;28;1329;-27
2023/08/22 02:17:21;;;;;;;;;;;;;;;28.21;39.54;100761.03;5057671;28;1160;-27
2023/08/22 02:19:47;;;;;;;;;;;;;;;28.39;39.24;100759.78;5073199;28;1111;-29
2023/08/22 02:22:13;;;;;;;;;;;;;;;28.21;39.51;100755.59;5053520;28;2291;-31
2023/08/22 02:24:38;;;;;;;;;;;;;;;28.29;39.40;100758.19;5053231;28;1116;-27
2023/08/22 02:27:04;;;;;;;;;;;;;;;28.21;39.63;100766.44;5046496;28;1131;-27
2023/08/22 02:29:29;;;;;;;;;;;;;;;28.44;38.76;100763.59;5071458;28;1905;-29
2023/08/22 02:31:55;;;;;;;;;;;;;;;28.16;39.87;100766.16;5056648;28;1127;-31
2023/08/22 02:34:21;;;;;;;;;;;;;;;28.23;39.57;100758.94;5072070;28;1036;-28
2023/08/22 02:36:48;;;;;;;;;;;;;;;28.28;39.52;100763.81;5076542;28;1035;-28
2023/08/22 02:39:13;;;;;;;;;;;;;;;28.52;38.71;100764.47;5058023;28;1066;-30
2023/08/22 02:41:39;;;;;;;;;;;;;;;28.39;39.00;100759.78;5073936;28;1082;-26
2023/08/22 02:44:04;;;;;;;;;;;;;;;28.36;39.20;100764.53;5056284;28;1036;-28
2023/08/22 02:46:30;;;;;;;;;;;;;;;28.29;39.79;100769.03;5038112;28;1360;-28
2023/08/22 02:48:56;;;;;;;;;;;;;;;28.39;39.21;100768.75;5053577;28;1980;-28
2023/08/22 02:51:21;;;;;;;;;;;;;;;28.35;39.08;100765.56;5057892;28;2125;-29
2023/08/22 02:53:47;;;;;;;;;;;;;;;28.29;39.28;100765.47;5040211;28;2711;-32
2023/08/22 02:56:12;;;;;;;;;;;;;;;28.33;39.54;100770.34;5038025;28;1055;-27
2023/08/22 02:58:38;;;;;;;;;;;;;;;28.40;39.01;100770.41;5051321;28;1167;-29
2023/08/22 03:01:04;;;;;;;;;;;;;;;28.63;38.19;100766.69;5065210;28;1059;-29
2023/08/22 03:03:33;;;;;;;;;;;;;;;28.59;38.63;100784.34;5075448;28;1101;-28
2023/08/22 03:05:58;;;;;;;;;;;;;;;28.35;39.34;100781.81;5048241;28;1134;-29
2023/08/22 03:08:24;;;;;;;;;;;;;;;28.51;39.13;100784.47;5040461;28;1984;-30
2023/08/22 03:10:50;;;;;;;;;;;;;;;28.34;38.99;100782.81;5057699;28;1134;-27
2023/08/22 03:13:16;;;;;;;;;;;;;;;28.11;39.73;100786.47;5058037;28;1201;-29
2023/08/22 03:15:42;;;;;;;;;;;;;;;27.99;39.55;100780.72;5057523;28;1027;-27
2023/08/22 03:18:09;;;;;;;;;;;;;;;28.63;38.12;100787.50;5054121;28;1227;-29
2023/08/22 03:20:35;;;;;;;;;;;;;;;28.57;37.35;100789.09;5037933;28;1289;-29
2023/08/22 03:23:00;;;;;;;;;;;;;;;28.22;37.86;100776.22;5037086;28;2422;-26
2023/08/22 03:25:26;;;;;;;;;;;;;;;28.72;36.98;100786.34;5047916;28;1164;-25
2023/08/22 03:27:52;;;;;;;;;;;;;;;28.34;39.99;100780.09;5057632;28;1241;-29
2023/08/22 03:30:17;;;;;;;;;;;;;;;22.63;49.61;100769.72;5053148;28;1906;-28
2023/08/22 03:32:45;;;;;;;;;;;;;;;20.27;52.21;100769.13;5040764;28;1255;-27
2023/08/22 03:35:10;;;;;;;;;;;;;;;19.56;52.35;100769.78;5057353;28;1096;-28
2023/08/22 03:37:40;;;;;;;;;;;;;;;19.67;52.25;100765.31;5057687;28;1287;-27
2023/08/22 03:40:06;;;;;;;;;;;;;;;19.65;54.10;100772.63;5075781;28;1178;-27
2023/08/22 03:42:32;;;;;;;;;;;;;;;19.28;54.15;100764.13;5052057;28;1305;-31
2023/08/22 03:45:03;;;;;;;;;;;;;;;18.43;54.33;100767.44;5045781;28;1406;-32
2023/08/22 03:47:30;;;;;;;;;;;;;;;18.45;53.85;100769.97;5056768;28;1287;-27
2023/08/22 03:49:55;;;;;;;;;;;;;;;17.66;52.78;100771.66;5045784;28;1914;-31
2023/08/22 03:52:23;;;;;;;;;;;;;;;18.23;55.31;100769.03;5043943;28;2045;-31
2023/08/22 03:54:49;;;;;;;;;;;;;;;18.84;54.50;100766.84;5068238;28;1098;-29
2023/08/22 03:57:15;;;;;;;;;;;;;;;18.91;54.69;100770.69;5052930;28;1314;-30
2023/08/22 03:59:41;;;;;;;;;;;;;;;18.96;54.89;100779.16;5057910;28;1487;-28
2023/08/22 04:02:06;;;;;;;;;;;;;;;19.01;54.75;100776.09;5045418;28;1116;-31
2023/08/22 04:04:32;;;;;;;;;;;;;;;18.58;55.55;100775.97;5063191;28;1087;-33
2023/08/22 04:06:57;;;;;;;;;;;;;;;19.08;55.89;100779.94;5042205;28;1166;-32
2023/08/22 04:09:23;;;;;;;;;;;;;;;19.08;56.06;100771.94;5078752;28;1983;-37
2023/08/22 04:11:48;;;;;;;;;;;;;;;18.90;57.38;100776.97;5060909;28;1097;-33
2023/08/22 04:14:14;;;;;;;;;;;;;;;19.24;57.42;100785.84;5078563;28;1047;-32
2023/08/22 04:16:40;;;;;;;;;;;;;;;19.12;57.97;100788.56;5060678;28;1221;-32
2023/08/22 04:19:05;;;;;;;;;;;;;;;19.08;58.47;100785.25;5071174;28;882;-30
2023/08/22 04:21:31;;;;;;;;;;;;;;;19.83;57.04;100794.22;5073266;28;1052;-32
2023/08/22 04:23:56;;;;;;;;;;;;;;;23.02;47.84;100797.22;5049386;28;2095;-32
2023/08/22 04:26:22;;;;;;;;;;;;;;;24.58;43.58;100797.47;5055317;28;1478;-36
2023/08/22 04:28:48;;;;;;;;;;;;;;;25.31;42.10;100802.25;5045783;28;1914;-35
2023/08/22 04:31:14;;;;;;;;;;;;;;;25.72;40.80;100797.00;5048072;28;1220;-32
2023/08/22 04:33:39;;;;;;;;;;;;;;;25.94;40.74;100798.13;5041424;28;1092;-33
2023/08/22 04:36:06;;;;;;;;;;;;;;;26.23;40.17;100804.72;5058016;28;1096;-32
2023/08/22 04:38:32;;;;;;;;;;;;;;;26.40;39.49;100800.13;5047724;28;1198;-37
2023/08/22 04:41:01;;;;;;;;;;;;;;;26.41;40.05;100809.03;5060498;28;1127;-32
2023/08/22 04:43:34;;;;;;;;;;;;;;;26.64;39.42;100808.25;5068172;28;905;-34
2023/08/22 04:46:01;;;;;;;;;;;;;;;26.76;39.67;100809.50;5053504;28;1100;-31
2023/08/22 04:48:26;;;;;;;;;;;;;;;26.94;39.76;100808.41;5040309;28;1965;-32
2023/08/22 04:50:52;;;;;;;;;;;;;;;27.25;39.37;100812.88;5055705;28;1228;-29
2023/08/22 04:53:19;;;;;;;;;;;;;;;27.28;39.78;100818.97;5046427;28;2544;-31
2023/08/22 04:55:44;;;;;;;;;;;;;;;27.31;39.61;100818.59;5047323;28;1111;-30
2023/08/22 04:58:10;;;;;;;;;;;;;;;27.50;39.53;100814.50;5060007;28;1123;-35
2023/08/22 05:00:36;;;;;;;;;;;;;;;27.41;39.77;100824.53;5077943;28;1003;-32
2023/08/22 05:03:05;;;;;;;;;;;;;;;27.52;40.04;100817.88;5059834;28;1032;-29
2023/08/22 05:05:30;;;;;;;;;;;;;;;27.70;39.62;100820.25;5059605;28;1161;-30
2023/08/22 05:07:57;;;;;;;;;;;;;;;27.66;40.02;100824.31;5047246;28;1395;-31
2023/08/22 05:10:24;;;;;;;;;;;;;;;27.72;40.31;100822.78;5055133;28;1997;-29
2023/08/22 05:12:49;;;;;;;;;;;;;;;27.81;39.90;100828.94;5059616;28;1222;-32
2023/08/22 05:15:15;;;;;;;;;;;;;;;27.86;39.79;100827.34;5077292;28;1135;-31
2023/08/22 05:17:40;;;;;;;;;;;;;;;27.80;40.11;100828.09;5059295;28;1130;-33
2023/08/22 05:20:10;;;;;;;;;;;;;;;27.77;40.17;100836.56;5045955;28;1193;-33
2023/08/22 05:22:36;;;;;;;;;;;;;;;27.72;40.29;100831.72;5039538;28;2358;-35
2023/08/22 05:25:04;;;;;;;;;;;;;;;27.86;40.29;100838.16;5055424;28;1337;-32
2023/08/22 05:27:29;;;;;;;;;;;;;;;27.81;40.39;100837.03;5048478;28;1110;-29
2023/08/22 05:29:55;;;;;;;;;;;;;;;27.78;40.64;100838.25;5051337;28;1913;-35
2023/08/22 05:32:20;;;;;;;;;;;;;;;27.83;40.45;100837.66;5045173;28;1310;-35
2023/08/22 05:34:46;;;;;;;;;;;;;;;27.61;39.82;100837.56;5075172;28;1123;-32
2023/08/22 05:37:12;;;;;;;;;;;;;;;27.77;38.14;100841.13;5038259;28;1365;-32
2023/08/22 05:39:37;;;;;;;;;;;;;;;27.97;39.13;100842.28;5040444;28;2186;-31
2023/08/22 05:42:04;;;;;;;;;;;;;;;28.15;39.10;100834.78;5059700;28;1139;-34
2023/08/22 05:44:32;;;;;;;;;;;;;;;28.10;39.14;100847.00;5045007;28;1401;-34
2023/08/22 05:46:58;;;;;;;;;;;;;;;27.96;39.47;100839.75;5048504;28;1334;-34
2023/08/22 05:49:25;;;;;;;;;;;;;;;28.08;38.80;100846.34;5059089;28;1905;-30
2023/08/22 05:51:53;;;;;;;;;;;;;;;28.17;39.14;100844.41;5059056;28;1101;-31
2023/08/22 05:54:19;;;;;;;;;;;;;;;28.19;39.19;100846.91;5058286;28;1126;-31
2023/08/22 05:56:44;;;;;;;;;;;;;;;28.33;38.64;100842.53;5057000;28;1240;-29
2023/08/22 05:59:11;;;;;;;;;;;;;;;28.25;39.09;100843.44;5033490;28;1305;-31
2023/08/22 06:01:36;;;;;;;;;;;;;;;28.35;38.83;100838.63;5047414;28;1248;-31
2023/08/22 06:04:03;;;;;;;;;;;;;;;28.34;38.96;100839.63;5027361;28;1557;-32
2023/08/22 06:06:29;;;;;;;;;;;;;;;28.53;38.50;100839.25;5040331;28;1393;-30
2023/08/22 06:08:55;;;;;;;;;;;;;;;28.42;38.83;100843.25;5057485;28;1969;-34
2023/08/22 06:11:21;;;;;;;;;;;;;;;28.39;38.84;100843.66;5053880;28;1163;-36
2023/08/22 06:13:47;;;;;;;;;;;;;;;28.34;38.99;100842.34;5054985;28;1119;-34
2023/08/22 06:16:13;;;;;;;;;;;;;;;28.37;38.53;100846.53;5058979;28;1255;-35
2023/08/22 06:18:39;;;;;;;;;;;;;;;28.48;38.03;100847.91;5058082;28;1967;-32
2023/08/22 06:21:04;;;;;;;;;;;;;;;28.34;38.32;100841.50;5036539;28;1353;-31
2023/08/22 06:23:30;;;;;;;;;;;;;;;28.40;37.89;100850.72;5037840;28;1429;-31
2023/08/22 06:25:55;;;;;;;;;;;;;;;28.50;37.75;100850.41;5067368;28;1132;-31
2023/08/22 06:28:21;;;;;;;;;;;;;;;28.42;38.09;100854.94;5044074;28;1902;-31
2023/08/22 06:30:46;;;;;;;;;;;;;;;28.25;38.76;100856.97;5035375;28;1123;-31
2023/08/22 06:33:12;;;;;;;;;;;;;;;28.28;38.16;100850.38;5038074;28;1110;-30
2023/08/22 06:35:37;;;;;;;;;;;;;;;28.35;37.85;100844.03;5051297;28;1406;-29
2023/08/22 06:38:03;;;;;;;;;;;;;;;28.21;38.26;100847.56;5057905;28;1421;-33
2023/08/22 06:40:29;;;;;;;;;;;;;;;28.36;37.91;100850.28;5058364;28;1135;-34
2023/08/22 06:42:54;;;;;;;;;;;;;;;28.38;37.76;100853.63;5075879;28;1024;-32
2023/08/22 06:45:37;;;;;;;;;;;;;;;28.30;37.59;100854.53;5033251;28;1165;-34
2023/08/22 06:48:03;;;;;;;;;;;;;;;28.42;37.66;100854.09;5032279;28;1319;-30
2023/08/22 06:50:29;;;;;;;;;;;;;;;28.33;37.92;100853.34;5061152;28;1910;-31
2023/08/22 06:52:54;;;;;;;;;;;;;;;28.33;37.67;100853.34;5056366;28;1056;-31
2023/08/22 06:55:20;;;;;;;;;;;;;;;28.30;37.46;100842.88;5074090;28;1111;-30
2023/08/22 06:57:45;;;;;;;;;;;;;;;28.36;37.49;100850.28;5062147;28;1397;-31
2023/08/22 07:00:14;;;;;;;;;;;;;;;28.38;37.43;100852.81;5063018;28;1145;-30
2023/08/22 07:02:43;;;;;;;;;;;;;;;28.34;37.81;100855.84;5045692;28;1021;-31
2023/08/22 07:05:09;;;;;;;;;;;;;;;28.43;37.50;100847.63;5057317;28;1330;-35
2023/08/22 07:07:35;;;;;;;;;;;;;;;28.39;37.23;100855.31;5055835;28;1048;-37
2023/08/22 07:10:00;;;;;;;;;;;;;;;28.46;37.21;100853.50;5055174;28;1980;-30
2023/08/22 07:12:26;;;;;;;;;;;;;;;28.49;37.38;100841.50;5055694;28;1124;-29
2023/08/22 07:14:51;;;;;;;;;;;;;;;28.43;37.06;100840.38;5055991;28;1052;-33
2023/08/22 07:17:17;;;;;;;;;;;;;;;28.50;36.71;100842.31;5056037;28;1075;-30
2023/08/22 07:19:42;;;;;;;;;;;;;;;28.52;36.75;100842.97;5051438;28;1208;-34
2023/08/22 07:22:08;;;;;;;;;;;;;;;28.47;37.31;100848.94;5062226;28;1257;-31
2023/08/22 07:24:33;;;;;;;;;;;;;;;28.54;36.54;100840.91;5055301;28;1413;-32
2023/08/22 07:26:59;;;;;;;;;;;;;;;28.56;36.62;100842.38;5055658;28;1203;-32
2023/08/22 07:29:24;;;;;;;;;;;;;;;28.64;36.72;100844.16;5055431;28;1917;-31
2023/08/22 07:31:50;;;;;;;;;;;;;;;28.47;37.49;100838.97;5055161;28;1105;-32
2023/08/22 07:34:15;;;;;;;;;;;;;;;28.69;36.40;100843.56;5057158;28;1040;-32
2023/08/22 07:36:41;;;;;;;;;;;;;;;28.62;36.64;100842.66;5059890;28;1060;-31
2023/08/22 07:39:06;;;;;;;;;;;;;;;28.76;36.07;100843.66;5059737;28;1119;-31
2023/08/22 07:41:32;;;;;;;;;;;;;;;28.69;36.67;100851.69;5059454;28;1114;-31
2023/08/22 07:43:57;;;;;;;;;;;;;;;28.73;36.06;100848.41;5059667;28;1119;-34
2023/08/22 07:46:23;;;;;;;;;;;;;;;28.56;36.19;100845.09;5059916;28;1148;-35
2023/08/22 07:48:49;;;;;;;;;;;;;;;28.72;36.29;100845.91;5059669;28;1989;-35
2023/08/22 07:51:14;;;;;;;;;;;;;;;28.71;37.22;100841.53;5060225;28;1175;-32
2023/08/22 07:53:40;;;;;;;;;;;;;;;28.80;35.71;100836.81;5059854;28;1077;-33
2023/08/22 07:56:06;;;;;;;;;;;;;;;28.92;34.80;100845.25;5059118;28;1175;-31
2023/08/22 07:58:31;;;;;;;;;;;;;;;28.96;34.86;100844.69;5059554;28;1158;-32
2023/08/22 08:00:57;;;;;;;;;;;;;;;28.91;35.68;100843.59;5059205;28;1048;-35
2023/08/22 08:03:22;;;;;;;;;;;;;;;28.86;35.95;100830.63;5059272;28;1099;-35
2023/08/22 08:05:48;;;;;;;;;;;;;;;28.83;35.47;100839.13;5059120;28;984;-33
2023/08/22 08:08:13;;;;;;;;;;;;;;;28.81;35.44;100839.31;5064161;28;1995;-33
2023/08/22 08:10:39;;;;;;;;;;;;;;;28.80;35.13;100821.41;5058860;28;1172;-31
2023/08/22 08:13:04;;;;;;;;;;;;;;;28.76;34.82;100825.53;5058815;28;1187;-31
2023/08/22 08:15:30;;;;;;;;;;;;;;;28.79;34.96;100822.44;5059070;28;1047;-32
2023/08/22 08:17:58;;;;;;;;;;;;;;;28.77;34.84;100823.66;5058749;28;1119;-31
2023/08/22 08:20:24;;;;;;;;;;;;;;;28.70;35.88;100834.41;5058617;28;1068;-33
2023/08/22 08:22:50;;;;;;;;;;;;;;;28.53;35.97;100833.84;5058755;28;1151;-33
2023/08/22 08:25:15;;;;;;;;;;;;;;;28.46;36.01;100834.56;5042017;28;1486;-33
2023/08/22 08:27:41;;;;;;;;;;;;;;;28.49;35.85;100833.38;5071222;28;1036;-31
2023/08/22 08:30:07;;;;;;;;;;;;;;;28.55;35.72;100832.59;5058693;28;1898;-31
2023/08/22 08:32:32;;;;;;;;;;;;;;;28.34;35.71;100828.81;5058073;28;1191;-35
2023/08/22 08:34:58;;;;;;;;;;;;;;;28.39;35.80;100825.56;5058272;28;862;-34
2023/08/22 08:37:23;;;;;;;;;;;;;;;28.35;35.83;100824.25;5058928;28;1036;-30
2023/08/22 08:39:49;;;;;;;;;;;;;;;28.60;35.26;100835.56;5058770;28;1148;-32
2023/08/22 08:42:14;;;;;;;;;;;;;;;28.51;35.41;100839.41;5058055;28;1045;-29
2023/08/22 08:44:40;;;;;;;;;;;;;;;28.22;35.83;100827.59;5058432;28;1041;-32
2023/08/22 08:47:09;;;;;;;;;;;;;;;28.30;35.56;100830.19;5057692;28;1078;-34
2023/08/22 08:49:34;;;;;;;;;;;;;;;28.43;35.69;100829.53;5058542;28;1898;-31
2023/08/22 08:52:07;;;;;;;;;;;;;;;28.43;36.06;100832.25;5058170;28;1102;-35
2023/08/22 08:54:32;;;;;;;;;;;;;;;28.51;36.72;100827.75;5058261;28;1223;-30
2023/08/22 08:56:59;;;;;;;;;;;;;;;28.44;37.32;100827.69;5058136;28;1203;-32
2023/08/22 08:59:24;;;;;;;;;;;;;;;28.55;37.83;100826.34;5057588;28;1570;-32
2023/08/22 09:01:52;;;;;;;;;;;;;;;28.49;38.15;100822.53;5048256;28;914;-30
2023/08/22 09:04:18;;;;;;;;;;;;;;;28.42;39.27;100821.63;5057534;28;944;-32
2023/08/22 09:06:47;;;;;;;;;;;;;;;28.57;39.34;100827.00;5057765;28;1155;-29
2023/08/22 09:09:13;;;;;;;;;;;;;;;28.58;39.51;100826.81;5057981;28;1902;-30
2023/08/22 09:11:45;;;;;;;;;;;;;;;28.61;39.84;100814.78;5057883;28;1123;-30
2023/08/22 09:14:10;;;;;;;;;;;;;;;28.82;39.70;100821.22;5057684;28;1082;-29
2023/08/22 09:16:36;;;;;;;;;;;;;;;28.94;39.41;100824.25;5057904;28;1119;-32
2023/08/22 09:19:02;;;;;;;;;;;;;;;28.95;39.41;100818.63;5057547;28;1064;-30
2023/08/22 09:21:28;;;;;;;;;;;;;;;28.98;39.53;100817.44;5057747;28;1056;-30
2023/08/22 09:24:02;;;;;;;;;;;;;;;28.74;40.16;100811.34;5057954;28;1131;-34
2023/08/22 09:26:28;;;;;;;;;;;;;;;28.90;39.72;100826.50;5039208;28;1126;-30
2023/08/22 09:28:54;;;;;;;;;;;;;;;28.87;39.97;100832.31;5057680;28;1910;-33
2023/08/22 09:31:25;;;;;;;;;;;;;;;28.89;39.99;100819.41;5057972;28;1168;-33
2023/08/22 09:33:50;;;;;;;;;;;;;;;28.98;40.05;100824.75;5057243;28;1159;-33
2023/08/22 09:36:17;;;;;;;;;;;;;;;28.94;40.11;100818.84;5056958;28;1076;-33
2023/08/22 09:38:52;;;;;;;;;;;;;;;28.81;40.21;100817.66;5057691;28;1044;-31
2023/08/22 09:41:22;;;;;;;;;;;;;;;28.88;40.18;100814.19;5044433;28;1107;-33
2023/08/22 09:43:49;;;;;;;;;;;;;;;28.78;40.62;100811.81;5050571;28;1319;-30
2023/08/22 09:46:15;;;;;;;;;;;;;;;28.91;40.19;100816.53;5056669;28;1238;-31
2023/08/22 09:48:40;;;;;;;;;;;;;;;28.86;40.57;100822.53;5039331;28;1976;-33
2023/08/22 09:51:07;;;;;;;;;;;;;;;29.06;40.18;100811.88;5043161;28;1227;-30
2023/08/22 09:53:32;;;;;;;;;;;;;;;29.09;40.30;100819.63;5044918;28;1446;-36
2023/08/22 09:55:58;;;;;;;;;;;;;;;29.18;39.85;100820.31;5038722;28;1033;-31
2023/08/22 09:58:23;;;;;;;;;;;;;;;29.20;40.09;100820.97;5038836;28;1129;-33
2023/08/22 10:00:50;;;;;;;;;;;;;;;28.95;41.54;100815.94;5038987;28;1270;-32
2023/08/22 10:03:15;;;;;;;;;;;;;;;28.87;41.59;100824.19;5056817;28;1124;-32
2023/08/22 10:05:41;;;;;;;;;;;;;;;28.98;41.69;100825.56;5039171;28;1037;-34
2023/08/22 10:08:06;;;;;;;;;;;;;;;28.95;41.75;100829.47;5039009;28;1164;-34
2023/08/22 10:10:32;;;;;;;;;;;;;;;28.81;42.31;100830.38;5056910;28;1983;-32
2023/08/22 10:12:57;;;;;;;;;;;;;;;28.85;42.25;100829.78;5056988;28;1341;-33
2023/08/22 10:15:22;;;;;;;;;;;;;;;28.90;39.38;100822.94;5038900;28;1016;-34
2023/08/22 10:17:48;;;;;;;;;;;;;;;28.93;40.50;100827.97;5057044;28;1045;-32
2023/08/22 10:20:15;;;;;;;;;;;;;;;28.84;41.63;100822.69;5058955;28;1124;-32
2023/08/22 10:22:41;;;;;;;;;;;;;;;28.96;41.59;100825.72;5059930;28;1201;-30
2023/08/22 10:25:07;;;;;;;;;;;;;;;29.04;41.60;100824.81;5056541;28;1168;-32
2023/08/22 10:27:35;;;;;;;;;;;;;;;29.33;41.14;100832.94;5056124;28;1064;-33
2023/08/22 10:30:13;;;;;;;;;;;;;;;29.41;41.12;100829.25;5056516;28;1980;-33
2023/08/22 10:32:38;;;;;;;;;;;;;;;29.29;41.61;100840.63;5044444;28;1053;-36
2023/08/22 10:35:05;;;;;;;;;;;;;;;29.41;41.57;100842.81;5056043;28;883;-32
2023/08/22 10:37:31;;;;;;;;;;;;;;;29.03;42.73;100838.53;5056645;28;1024;-31
2023/08/22 10:40:04;;;;;;;;;;;;;;;28.85;43.34;100834.38;5056309;28;1068;-31
2023/08/22 10:42:29;;;;;;;;;;;;;;;28.82;43.42;100829.34;5051265;28;1576;-30
2023/08/22 10:44:56;;;;;;;;;;;;;;;29.04;43.15;100830.22;5056042;28;1064;-30
2023/08/22 10:47:26;;;;;;;;;;;;;;;29.07;43.27;100824.41;5055850;28;850;-35
2023/08/22 10:49:55;;;;;;;;;;;;;;;29.14;43.26;100824.47;5054574;28;1913;-33
2023/08/22 10:52:32;;;;;;;;;;;;;;;29.17;43.32;100821.38;5056388;28;1207;-33
2023/08/22 10:55:00;;;;;;;;;;;;;;;29.15;43.40;100819.88;5056377;28;1120;-32
2023/08/22 10:57:26;;;;;;;;;;;;;;;29.26;43.27;100822.03;5055721;28;1044;-32
2023/08/22 10:59:55;;;;;;;;;;;;;;;29.49;42.65;100820.13;5055748;28;1176;-30
2023/08/22 11:02:20;;;;;;;;;;;;;;;29.47;42.96;100828.47;5056410;28;1068;-33
2023/08/22 11:04:46;;;;;;;;;;;;;;;29.54;42.82;100817.69;5037945;28;1080;-34
2023/08/22 11:07:11;;;;;;;;;;;;;;;29.34;43.19;100819.19;5055926;28;1148;-31
2023/08/22 11:09:37;;;;;;;;;;;;;;;29.72;42.55;100819.06;5054414;28;1902;-33
2023/08/22 11:12:03;;;;;;;;;;;;;;;29.61;42.55;100813.19;5056067;28;1048;-34
2023/08/22 11:14:43;;;;;;;;;;;;;;;29.53;42.89;100816.00;5037831;28;1413;-30
2023/08/22 11:17:08;;;;;;;;;;;;;;;29.22;43.72;100812.66;5055527;28;1028;-30
2023/08/22 11:19:34;;;;;;;;;;;;;;;29.38;43.71;100803.38;5065530;28;1322;-33
2023/08/22 11:22:00;;;;;;;;;;;;;;;29.39;43.10;100805.06;5056919;28;1283;-34
2023/08/22 11:24:26;;;;;;;;;;;;;;;29.45;43.21;100806.97;5058189;28;1353;-28
2023/08/22 11:26:52;;;;;;;;;;;;;;;29.58;42.74;100806.22;5076073;28;1317;-34
2023/08/22 11:29:21;;;;;;;;;;;;;;;29.51;42.99;100801.81;5059823;28;1905;-33
2023/08/22 11:31:46;;;;;;;;;;;;;;;29.50;43.08;100798.25;5047702;28;1229;-32
2023/08/22 11:34:12;;;;;;;;;;;;;;;29.45;43.01;100806.13;5050032;28;1188;-30
2023/08/22 11:36:39;;;;;;;;;;;;;;;29.43;43.28;100806.34;5044255;28;1315;-34
2023/08/22 11:39:07;;;;;;;;;;;;;;;29.49;43.07;100804.72;5056836;28;1007;-32
2023/08/22 11:41:33;;;;;;;;;;;;;;;29.55;43.05;100797.66;5039019;28;1223;-32
2023/08/22 11:44:00;;;;;;;;;;;;;;;29.55;42.76;100808.50;5053483;28;1163;-32
2023/08/22 11:46:26;;;;;;;;;;;;;;;29.49;42.87;100802.00;5052272;28;1525;-36
2023/08/22 11:49:24;;;;;;;;;;;;;;;29.62;42.72;100806.72;5001696;28;1973;-31
2023/08/22 11:51:53;;;;;;;;;;;;;;;29.50;42.83;100809.09;5076122;28;1300;-34
2023/08/22 11:54:22;;;;;;;;;;;;;;;29.60;43.03;100810.63;5060490;28;1029;-34
2023/08/22 11:56:48;;;;;;;;;;;;;;;29.43;43.32;100813.63;5071630;28;1174;-30
2023/08/22 11:59:13;;;;;;;;;;;;;;;29.53;42.99;100813.31;5054922;28;1029;-35
2023/08/22 12:01:39;;;;;;;;;;;;;;;29.56;42.77;100816.44;5047571;28;1152;-33
2023/08/22 12:04:06;;;;;;;;;;;;;;;29.54;43.31;100817.69;5045433;28;1078;-30
2023/08/22 12:06:31;;;;;;;;;;;;;;;29.85;45.99;100815.56;5055252;28;1076;-31
2023/08/22 12:08:57;;;;;;;;;;;;;;;25.81;49.78;100801.34;5055000;28;1976;-34
2023/08/22 12:11:23;;;;;;;;;;;;;;;24.05;51.33;100805.66;5054971;28;1156;-28
2023/08/22 12:13:49;;;;;;;;;;;;;;;23.64;53.98;100797.38;5055159;28;1128;-35
2023/08/22 12:16:14;;;;;;;;;;;;;;;23.53;54.25;100802.00;5054991;28;1084;-30
2023/08/22 12:18:40;;;;;;;;;;;;;;;23.34;54.68;100792.25;5055188;28;1051;-34
2023/08/22 12:21:06;;;;;;;;;;;;;;;23.08;55.13;100803.78;5056226;28;1126;-30
2023/08/22 12:23:31;;;;;;;;;;;;;;;23.01;55.41;100806.25;5058528;28;878;-31
2023/08/22 12:25:57;;;;;;;;;;;;;;;22.91;55.70;100800.97;5072152;28;1152;-31
2023/08/22 12:28:24;;;;;;;;;;;;;;;22.78;56.03;100805.88;5058854;28;1977;-31
2023/08/22 12:30:49;;;;;;;;;;;;;;;22.65;55.69;100808.91;5058170;28;1160;-30
2023/08/22 12:33:15;;;;;;;;;;;;;;;22.46;56.00;100805.31;5058722;28;1151;-29
2023/08/22 12:35:41;;;;;;;;;;;;;;;22.40;56.42;100804.09;5058469;28;920;-33
2023/08/22 12:38:06;;;;;;;;;;;;;;;22.41;56.36;100803.09;5052286;28;1310;-33
2023/08/22 12:40:32;;;;;;;;;;;;;;;22.33;56.75;100798.50;5040813;28;1164;-34
2023/08/22 12:43:00;;;;;;;;;;;;;;;22.26;57.25;100806.28;5058657;28;1076;-30